TimeCDT,TemperatureF,Dew PointF,Humidity,Sea Level PressureIn,VisibilityMPH,Wind Direction,Wind SpeedMPH,Gust SpeedMPH,PrecipitationIn,Events,Conditions,WindDirDegrees,DateUTC
12:52 AM,46.9,36.0,66,29.95,10.0,South,3.5,-,N/A,,Clear,190,2013-04-01 05:52:00
1:52 AM,46.9,37.9,71,29.94,10.0,SSW,5.8,-,N/A,,Clear,200,2013-04-01 06:52:00
2:52 AM,50.0,37.0,61,30.01,10.0,NNE,8.1,-,N/A,,Clear,30,2013-04-01 07:52:00
3:52 AM,45.0,34.0,65,30.05,10.0,NNE,15.0,21.9,N/A,,Clear,30,2013-04-01 08:52:00
4:52 AM,42.1,30.9,65,30.09,10.0,NE,13.8,28.8,N/A,,Clear,40,2013-04-01 09:52:00
5:52 AM,39.9,32.0,73,30.13,10.0,NNE,13.8,21.9,N/A,,Clear,30,2013-04-01 10:52:00
6:28 AM,39.2,33.8,81,30.17,10.0,NNE,15.0,24.2,N/A,,Mostly Cloudy,30,2013-04-01 11:28:00
6:52 AM,39.9,33.1,77,30.16,10.0,NE,13.8,24.2,N/A,,Overcast,40,2013-04-01 11:52:00
7:52 AM,37.0,32.0,82,30.19,10.0,NNE,17.3,24.2,N/A,,Overcast,30,2013-04-01 12:52:00
8:52 AM,36.0,28.9,76,30.24,10.0,NNE,15.0,25.3,N/A,,Overcast,30,2013-04-01 13:52:00
9:08 AM,35.6,26.6,70,30.25,10.0,NNE,16.1,24.2,N/A,,Overcast,20,2013-04-01 14:08:00
9:31 AM,35.6,28.4,75,30.26,10.0,NE,9.2,20.7,N/A,,Overcast,40,2013-04-01 14:31:00
9:52 AM,36.0,28.0,73,30.25,10.0,NE,17.3,24.2,N/A,,Overcast,50,2013-04-01 14:52:00
10:41 AM,37.4,26.6,65,30.26,10.0,NE,12.7,21.9,N/A,,Overcast,40,2013-04-01 15:41:00
10:52 AM,37.0,26.1,65,30.28,10.0,NE,10.4,20.7,N/A,,Overcast,40,2013-04-01 15:52:00
11:52 AM,37.9,21.0,51,30.30,10.0,NNE,12.7,-,N/A,,Overcast,30,2013-04-01 16:52:00
12:52 PM,37.9,19.9,48,30.27,10.0,NE,13.8,-,N/A,,Overcast,50,2013-04-01 17:52:00
1:52 PM,39.0,19.0,45,30.25,10.0,NE,9.2,21.9,N/A,,Overcast,40,2013-04-01 18:52:00
2:16 PM,39.2,19.4,45,30.24,10.0,NNE,11.5,18.4,0.00,Rain,Light Rain,30,2013-04-01 19:16:00
2:52 PM,36.0,24.1,62,30.27,3.0,NE,5.8,-,0.07,Rain,Heavy Rain,50,2013-04-01 19:52:00
3:52 PM,37.0,27.0,67,30.25,10.0,East,5.8,-,0.01,Rain,Light Rain,90,2013-04-01 20:52:00
4:52 PM,39.9,23.0,51,30.23,10.0,ENE,8.1,-,N/A,,Overcast,60,2013-04-01 21:52:00
5:52 PM,41.0,25.0,53,30.22,10.0,ENE,5.8,-,N/A,,Overcast,60,2013-04-01 22:52:00
6:52 PM,41.0,24.1,51,30.21,10.0,ENE,6.9,-,N/A,,Overcast,60,2013-04-01 23:52:00
7:52 PM,41.0,21.9,47,30.22,10.0,Calm,Calm,-,N/A,,Overcast,0,2013-04-02 00:52:00
8:52 PM,41.0,21.9,47,30.23,10.0,NE,4.6,-,N/A,,Overcast,40,2013-04-02 01:52:00
9:52 PM,41.0,25.0,53,30.25,10.0,Calm,Calm,-,N/A,,Overcast,0,2013-04-02 02:52:00
10:52 PM,41.0,25.0,53,30.25,10.0,ENE,5.8,-,N/A,,Overcast,60,2013-04-02 03:52:00
11:52 PM,41.0,23.0,49,30.23,10.0,NE,8.1,-,N/A,,Overcast,40,2013-04-02 04:52:00